sensor_id;sensor_type;location;lat;lon;timestamp;temperature;humidity
72646;DHT22;60687;53.876;10.674;2023-07-13T00:06:42;17.90;93.10
72646;DHT22;60687;53.876;10.674;2023-07-13T00:16:46;17.90;94.00
72646;DHT22;60687;53.876;10.674;2023-07-13T00:26:49;17.80;94.30
72646;DHT22;60687;53.876;10.674;2023-07-13T00:36:52;17.80;94.60
72646;DHT22;60687;53.876;10.674;2023-07-13T00:46:56;17.80;94.40
72646;DHT22;60687;53.876;10.674;2023-07-13T00:57:02;17.60;93.60
72646;DHT22;60687;53.876;10.674;2023-07-13T01:07:07;17.60;93.80
72646;DHT22;60687;53.876;10.674;2023-07-13T01:17:10;17.60;93.30
72646;DHT22;60687;53.876;10.674;2023-07-13T01:27:17;17.50;93.40
72646;DHT22;60687;53.876;10.674;2023-07-13T01:37:22;17.50;93.50
72646;DHT22;60687;53.876;10.674;2023-07-13T01:47:27;17.40;93.60
72646;DHT22;60687;53.876;10.674;2023-07-13T01:57:31;17.40;93.70
72646;DHT22;60687;53.876;10.674;2023-07-13T02:07:35;17.30;93.70
72646;DHT22;60687;53.876;10.674;2023-07-13T02:17:38;17.20;93.70
72646;DHT22;60687;53.876;10.674;2023-07-13T02:27:43;17.20;93.80
72646;DHT22;60687;53.876;10.674;2023-07-13T02:37:45;17.10;94.10
72646;DHT22;60687;53.876;10.674;2023-07-13T02:47:49;17.00;94.20
72646;DHT22;60687;53.876;10.674;2023-07-13T02:57:52;17.00;94.10
72646;DHT22;60687;53.876;10.674;2023-07-13T03:07:56;16.80;94.50
72646;DHT22;60687;53.876;10.674;2023-07-13T03:17:59;16.80;94.40
72646;DHT22;60687;53.876;10.674;2023-07-13T03:28:03;16.70;94.60
72646;DHT22;60687;53.876;10.674;2023-07-13T03:38:08;16.60;94.70
72646;DHT22;60687;53.876;10.674;2023-07-13T03:48:12;16.60;95.10
72646;DHT22;60687;53.876;10.674;2023-07-13T03:58:30;16.50;95.40
72646;DHT22;60687;53.876;10.674;2023-07-13T04:08:41;16.50;96.00
72646;DHT22;60687;53.876;10.674;2023-07-13T04:18:43;16.50;96.30
72646;DHT22;60687;53.876;10.674;2023-07-13T04:28:47;16.50;96.50
72646;DHT22;60687;53.876;10.674;2023-07-13T04:38:50;16.50;96.40
72646;DHT22;60687;53.876;10.674;2023-07-13T04:48:54;16.50;96.20
72646;DHT22;60687;53.876;10.674;2023-07-13T04:58:56;16.60;96.20
72646;DHT22;60687;53.876;10.674;2023-07-13T05:09:00;16.80;96.20
72646;DHT22;60687;53.876;10.674;2023-07-13T05:19:04;16.90;95.20
72646;DHT22;60687;53.876;10.674;2023-07-13T05:29:09;17.00;94.40
72646;DHT22;60687;53.876;10.674;2023-07-13T05:39:11;17.10;93.80
72646;DHT22;60687;53.876;10.674;2023-07-13T05:49:15;17.20;92.90
72646;DHT22;60687;53.876;10.674;2023-07-13T05:59:18;17.40;92.30
72646;DHT22;60687;53.876;10.674;2023-07-13T06:09:22;17.60;91.90
72646;DHT22;60687;53.876;10.674;2023-07-13T06:19:24;17.80;91.50
72646;DHT22;60687;53.876;10.674;2023-07-13T06:29:28;18.00;91.00
72646;DHT22;60687;53.876;10.674;2023-07-13T06:39:30;18.30;91.30
72646;DHT22;60687;53.876;10.674;2023-07-13T06:49:34;18.70;90.80
72646;DHT22;60687;53.876;10.674;2023-07-13T06:59:36;19.00;89.70
72646;DHT22;60687;53.876;10.674;2023-07-13T07:09:40;19.10;90.30
72646;DHT22;60687;53.876;10.674;2023-07-13T07:19:42;19.10;90.30
72646;DHT22;60687;53.876;10.674;2023-07-13T07:29:46;19.20;90.30
72646;DHT22;60687;53.876;10.674;2023-07-13T07:39:49;19.30;90.30
72646;DHT22;60687;53.876;10.674;2023-07-13T07:49:52;19.40;90.30
72646;DHT22;60687;53.876;10.674;2023-07-13T07:59:55;19.50;88.00
72646;DHT22;60687;53.876;10.674;2023-07-13T08:09:58;19.60;89.30
72646;DHT22;60687;53.876;10.674;2023-07-13T08:20:01;19.70;82.90
72646;DHT22;60687;53.876;10.674;2023-07-13T08:30:07;19.80;83.20
72646;DHT22;60687;53.876;10.674;2023-07-13T08:40:11;20.00;82.40
72646;DHT22;60687;53.876;10.674;2023-07-13T08:50:18;20.30;78.10
72646;DHT22;60687;53.876;10.674;2023-07-13T09:00:38;20.50;73.80
72646;DHT22;60687;53.876;10.674;2023-07-13T09:10:46;20.60;72.90
72646;DHT22;60687;53.876;10.674;2023-07-13T09:20:50;20.90;72.80
72646;DHT22;60687;53.876;10.674;2023-07-13T09:31:00;21.10;73.40
72646;DHT22;60687;53.876;10.674;2023-07-13T09:41:11;21.30;68.80
72646;DHT22;60687;53.876;10.674;2023-07-13T09:51:18;21.50;70.40
72646;DHT22;60687;53.876;10.674;2023-07-13T10:01:32;21.70;68.10
72646;DHT22;60687;53.876;10.674;2023-07-13T10:11:39;21.70;65.70
72646;DHT22;60687;53.876;10.674;2023-07-13T10:21:49;21.70;66.70
72646;DHT22;60687;53.876;10.674;2023-07-13T10:31:54;21.60;67.10
72646;DHT22;60687;53.876;10.674;2023-07-13T10:42:04;21.90;65.20
72646;DHT22;60687;53.876;10.674;2023-07-13T10:52:42;22.00;63.70
72646;DHT22;60687;53.876;10.674;2023-07-13T11:02:56;22.20;59.80
72646;DHT22;60687;53.876;10.674;2023-07-13T11:13:03;22.50;57.80
72646;DHT22;60687;53.876;10.674;2023-07-13T11:23:20;22.70;56.80
72646;DHT22;60687;53.876;10.674;2023-07-13T11:33:25;22.30;50.70
72646;DHT22;60687;53.876;10.674;2023-07-13T11:43:29;21.40;54.40
72646;DHT22;60687;53.876;10.674;2023-07-13T11:53:39;21.10;60.70
72646;DHT22;60687;53.876;10.674;2023-07-13T12:03:42;21.00;66.30
72646;DHT22;60687;53.876;10.674;2023-07-13T12:13:48;20.90;66.60
72646;DHT22;60687;53.876;10.674;2023-07-13T12:23:50;20.90;68.40
72646;DHT22;60687;53.876;10.674;2023-07-13T12:33:59;21.30;62.50
72646;DHT22;60687;53.876;10.674;2023-07-13T12:44:02;21.20;63.00
72646;DHT22;60687;53.876;10.674;2023-07-13T12:54:15;21.10;66.00
72646;DHT22;60687;53.876;10.674;2023-07-13T13:04:18;21.00;66.30
72646;DHT22;60687;53.876;10.674;2023-07-13T13:14:23;20.80;67.10
72646;DHT22;60687;53.876;10.674;2023-07-13T13:24:27;20.40;72.40
72646;DHT22;60687;53.876;10.674;2023-07-13T13:34:32;20.00;77.10
72646;DHT22;60687;53.876;10.674;2023-07-13T13:44:35;19.60;81.20
72646;DHT22;60687;53.876;10.674;2023-07-13T13:54:40;19.40;85.20
72646;DHT22;60687;53.876;10.674;2023-07-13T14:04:42;19.50;88.40
72646;DHT22;60687;53.876;10.674;2023-07-13T14:14:47;19.40;88.60
72646;DHT22;60687;53.876;10.674;2023-07-13T14:24:50;19.30;89.40
72646;DHT22;60687;53.876;10.674;2023-07-13T14:34:53;19.40;91.40
72646;DHT22;60687;53.876;10.674;2023-07-13T14:44:56;19.50;90.60
72646;DHT22;60687;53.876;10.674;2023-07-13T14:55:00;19.50;90.80
72646;DHT22;60687;53.876;10.674;2023-07-13T15:05:11;19.60;91.00
72646;DHT22;60687;53.876;10.674;2023-07-13T15:15:16;19.70;91.10
72646;DHT22;60687;53.876;10.674;2023-07-13T15:25:20;19.80;88.30
72646;DHT22;60687;53.876;10.674;2023-07-13T15:35:26;19.70;87.90
72646;DHT22;60687;53.876;10.674;2023-07-13T15:45:28;19.70;87.30
72646;DHT22;60687;53.876;10.674;2023-07-13T15:55:33;19.70;80.60
72646;DHT22;60687;53.876;10.674;2023-07-13T16:05:38;19.80;77.40
72646;DHT22;60687;53.876;10.674;2023-07-13T16:15:42;19.80;73.60
72646;DHT22;60687;53.876;10.674;2023-07-13T16:25:45;19.90;72.90
72646;DHT22;60687;53.876;10.674;2023-07-13T16:35:50;19.90;72.90
72646;DHT22;60687;53.876;10.674;2023-07-13T16:45:55;20.00;70.60
72646;DHT22;60687;53.876;10.674;2023-07-13T16:56:02;20.00;69.20
72646;DHT22;60687;53.876;10.674;2023-07-13T17:06:20;20.00;71.70
72646;DHT22;60687;53.876;10.674;2023-07-13T17:16:25;20.00;68.50
72646;DHT22;60687;53.876;10.674;2023-07-13T17:26:28;20.00;69.50
72646;DHT22;60687;53.876;10.674;2023-07-13T17:36:33;20.00;65.00
72646;DHT22;60687;53.876;10.674;2023-07-13T17:46:36;19.90;64.30
72646;DHT22;60687;53.876;10.674;2023-07-13T17:56:40;19.80;62.10
72646;DHT22;60687;53.876;10.674;2023-07-13T18:06:45;19.70;61.30
72646;DHT22;60687;53.876;10.674;2023-07-13T18:16:58;19.60;62.00
72646;DHT22;60687;53.876;10.674;2023-07-13T18:27:02;19.50;62.70
72646;DHT22;60687;53.876;10.674;2023-07-13T18:37:14;19.40;64.20
72646;DHT22;60687;53.876;10.674;2023-07-13T18:47:20;19.30;63.70
72646;DHT22;60687;53.876;10.674;2023-07-13T18:57:27;19.20;63.50
72646;DHT22;60687;53.876;10.674;2023-07-13T19:07:29;19.10;63.90
72646;DHT22;60687;53.876;10.674;2023-07-13T19:17:35;19.00;66.10
72646;DHT22;60687;53.876;10.674;2023-07-13T19:27:37;18.80;66.20
72646;DHT22;60687;53.876;10.674;2023-07-13T19:37:42;18.70;66.90
72646;DHT22;60687;53.876;10.674;2023-07-13T19:47:45;18.70;67.80
72646;DHT22;60687;53.876;10.674;2023-07-13T19:57:49;18.50;68.40
72646;DHT22;60687;53.876;10.674;2023-07-13T20:07:55;18.50;69.40
72646;DHT22;60687;53.876;10.674;2023-07-13T20:17:59;18.30;70.20
72646;DHT22;60687;53.876;10.674;2023-07-13T20:28:04;18.20;71.10
72646;DHT22;60687;53.876;10.674;2023-07-13T20:38:12;18.10;71.70
72646;DHT22;60687;53.876;10.674;2023-07-13T20:48:24;18.00;73.60
72646;DHT22;60687;53.876;10.674;2023-07-13T20:58:29;17.90;74.20
72646;DHT22;60687;53.876;10.674;2023-07-13T21:08:31;17.80;75.10
72646;DHT22;60687;53.876;10.674;2023-07-13T21:18:37;17.70;76.60
72646;DHT22;60687;53.876;10.674;2023-07-13T21:28:41;17.60;78.80
72646;DHT22;60687;53.876;10.674;2023-07-13T21:38:45;17.50;80.80
72646;DHT22;60687;53.876;10.674;2023-07-13T21:48:50;17.50;80.90
72646;DHT22;60687;53.876;10.674;2023-07-13T21:58:54;17.40;82.60
72646;DHT22;60687;53.876;10.674;2023-07-13T22:08:57;17.30;84.20
72646;DHT22;60687;53.876;10.674;2023-07-13T22:19:09;17.20;85.40
72646;DHT22;60687;53.876;10.674;2023-07-13T22:29:15;17.10;89.10
72646;DHT22;60687;53.876;10.674;2023-07-13T22:39:23;17.00;89.80
72646;DHT22;60687;53.876;10.674;2023-07-13T22:49:29;17.00;90.50
72646;DHT22;60687;53.876;10.674;2023-07-13T22:59:36;16.90;91.10
72646;DHT22;60687;53.876;10.674;2023-07-13T23:09:38;16.80;91.20
72646;DHT22;60687;53.876;10.674;2023-07-13T23:19:44;16.70;91.40
72646;DHT22;60687;53.876;10.674;2023-07-13T23:29:47;16.60;91.60
72646;DHT22;60687;53.876;10.674;2023-07-13T23:39:51;16.50;91.90
72646;DHT22;60687;53.876;10.674;2023-07-13T23:49:53;16.50;92.10
72646;DHT22;60687;53.876;10.674;2023-07-13T23:59:58;16.40;92.30
